Fort Morgan, CO (80701)

10:30 AM MDT on September 23, 2014 (GMT -0600)
Fort Morgan | Change Station
CLOSE
Current Station
Personal Weather Station
Location: Fort Morgan, CO
Elevation: 4327 ft
Nearby Weather Stations

Elev 4327 ft 40.24 °N, 103.79 °W | Updated 3 seconds ago

Partly Cloudy
Partly Cloudy
68.4 °F
Feels Like 68.4 °F
N
1.6
Wind Variable Wind from NNE
Gusts 4.5 mph

Today
High -- | Low -- °F
--% Chance of Precip.
Yesterday
High -- | Low -- °F
Precip. -- in
6:43 AM 6:50 PM
Waning Crescent, 0% visible
Pressure 30.12 in
Visibility 10.0 miles
Clouds Scattered Clouds 10000 ft
Mostly Cloudy 12000 ft
Dew Point 58 °F
Humidity 69%
Rainfall 0.00 in
Snow Depth 0 in , 0 in , 86 in
UV 0.0 out of 12
Pollen 6.10 out of 12
Air Quality Not available.
Flu Activity Not available.
METAR KFMM 231615Z AUTO 29003KT 10SM SCT100 BKN120 20/10 A3012 RMK AO2 T01990104

More Conditions Fewer Conditions

Pressure 30.12 in
Visibility 10.0 miles
Clouds Scattered Clouds 10000 ft
Mostly Cloudy 12000 ft
Dew Point 58 °F
Humidity 69%
Rainfall 0.00 in
Snow Depth 0 in , 0 in , 86 in
UV 0.0 out of 12
Pollen 6.10 out of 12
Air Quality Not available.
Flu Activity Not available.
METAR KFMM 231615Z AUTO 29003KT 10SM SCT100 BKN120 20/10 A3012 RMK AO2 T01990104

More Conditions Fewer Conditions

10-Day Weather Forecast

Almanac

Astronomy

Sep. 23, 2014 Rise Set
Actual Time 6:43 AM MDT 6:50 PM MDT
Civil Twilight 6:16 AM MDT 7:17 PM MDT
Nautical Twilight 5:44 AM MDT 7:49 PM MDT
Astronomical Twilight 5:12 AM MDT 8:21 PM MDT
Moon 6:10 AM MDT 6:30 PM MDT
Length of Visible Light 13h 00m
Length of Day
12h 06m
Tomorrow will be 2m 39s shorter.
Waning Crescent, 0% of the Moon is Illuminated
Today
Waning Crescent
Sep 24
New
Oct 1
First Quarter
Oct 8
Full
Oct 15
Last Quarter

Today's Extremes

State Highs State Lows

Community

WunderPhotos

Upload Photos

1,755,744 photos uploaded!

WunderBlogs® & News

By Dr. Jeff Masters
Director of Meteorology, Weather Underground
By Kari Strenfel
Meteorologist, Weather Underground
By Christopher C. Burt
Weather Historian, Weather Underground
September 23, 2014
September 23, 2014
September 23, 2014

Nearby

Snow Depth

Station Depth Elevation
Michigan Creek 0 in 10600 ft
Phantom Valley 0 in 9030 ft
Vail Mountain 86 in 10300 ft
Upper Rio Grande 1 in 9400 ft
Apishapa 0 in 10000 ft

Earthquake Activity

City Distance Mag. Time & Date
No recent earthquake activity has been reported nearby.
Minimum magnitude displayed is 2.5.

Coastal Water Temperatures

Place Temperature
No Stations Reporting

Nearby Weather Stations